Time;durP1;ratioP1;P1;durP2;ratioP2;P2;SDS_P1;SDS_P2;PMS_P1;PMS_P2;Temp;Humidity;BMP_temperature;BMP_pressure;BME280_temperature;BME280_humidity;BME280_pressure;Samples;Min_cycle;Max_cycle;Signal;HPM_P1;HPM_P2
2023/08/18 00:01:59;;;;;;;0.00;0.00;;;;;;;16.93;100.00;101640.31;5056028;28;20105;-51
2023/08/18 00:04:25;;;;;;;0.00;0.00;;;;;;;16.91;100.00;101636.81;5056273;28;20025;-49
2023/08/18 00:06:50;;;;;;;0.00;0.00;;;;;;;16.93;100.00;101632.53;5056131;28;20025;-48
2023/08/18 00:09:15;;;;;;;0.00;0.00;;;;;;;16.90;100.00;101629.81;5056203;28;20101;-49
2023/08/18 00:11:41;;;;;;;0.03;0.03;;;;;;;16.86;100.00;101628.91;5056197;28;20106;-50
2023/08/18 00:14:06;;;;;;;0.10;0.10;;;;;;;16.87;100.00;101632.38;5055802;28;20024;-50
2023/08/18 00:16:31;;;;;;;0.10;0.10;;;;;;;16.85;100.00;101634.06;5055761;28;20083;-50
2023/08/18 00:18:56;;;;;;;0.10;0.10;;;;;;;16.83;100.00;101628.84;5056549;28;20112;-50
2023/08/18 00:21:22;;;;;;;0.00;0.00;;;;;;;16.82;100.00;101623.63;5055631;28;20079;-50
2023/08/18 00:23:47;;;;;;;0.00;0.00;;;;;;;16.79;100.00;101621.84;5056214;28;20021;-51
2023/08/18 00:26:12;;;;;;;0.00;0.00;;;;;;;16.76;100.00;101622.66;5055787;28;20045;-50
2023/08/18 00:28:38;;;;;;;0.10;0.10;;;;;;;16.75;100.00;101617.44;5055587;28;20078;-50
2023/08/18 00:31:03;;;;;;;0.00;0.00;;;;;;;16.72;100.00;101614.75;5055771;28;20090;-51
2023/08/18 00:33:28;;;;;;;0.03;0.03;;;;;;;16.73;100.00;101617.44;5055890;28;20020;-49
2023/08/18 00:35:54;;;;;;;0.10;0.10;;;;;;;16.72;100.00;101613.06;5055586;28;20029;-50
2023/08/18 00:38:19;;;;;;;0.00;0.00;;;;;;;16.72;100.00;101613.06;5055508;28;20048;-50
2023/08/18 00:40:44;;;;;;;0.00;0.00;;;;;;;16.72;100.00;101618.25;5055899;28;20025;-50
2023/08/18 00:43:10;;;;;;;0.00;0.00;;;;;;;16.71;100.00;101629.53;5055227;28;20021;-50
2023/08/18 00:45:35;;;;;;;0.00;0.00;;;;;;;16.71;100.00;101626.06;5055196;28;20108;-50
2023/08/18 00:48:01;;;;;;;0.10;0.10;;;;;;;16.69;100.00;101620.78;5055980;28;20033;-48
2023/08/18 00:50:26;;;;;;;0.00;0.00;;;;;;;16.69;100.00;101620.78;5054995;28;20037;-50
2023/08/18 00:52:58;;;;;;;0.00;0.00;;;;;;;16.68;100.00;101619.06;5055514;28;20033;-50
2023/08/18 00:55:26;;;;;;;0.00;0.00;;;;;;;16.69;100.00;101617.34;5055645;28;20029;-49
2023/08/18 00:57:54;;;;;;;0.10;0.10;;;;;;;16.67;100.00;101619.91;5054980;28;20472;-49
2023/08/18 01:00:23;;;;;;;0.00;0.00;;;;;;;16.65;100.00;101613.78;5054982;28;20025;-49
2023/08/18 01:02:49;;;;;;;0.00;0.00;;;;;;;16.64;100.00;101614.63;5055175;28;20029;-50
2023/08/18 01:05:15;;;;;;;0.00;0.00;;;;;;;16.62;100.00;101613.75;5055229;28;20032;-50
2023/08/18 01:07:40;;;;;;;0.00;0.00;;;;;;;16.59;100.00;101605.88;5055387;28;20036;-49
2023/08/18 01:10:05;;;;;;;0.00;0.00;;;;;;;16.55;100.00;101604.97;5054815;28;20357;-50
2023/08/18 01:13:06;;;;;;;0.10;0.10;;;;;;;16.55;100.00;101609.28;5054588;28;20033;-50
2023/08/18 01:15:44;;;;;;;0.10;0.10;;;;;;;16.55;100.00;101606.69;5041632;28;20134;-49
2023/08/18 01:18:10;;;;;;;0.00;0.00;;;;;;;16.51;100.00;101610.09;5054713;28;20107;-51
2023/08/18 01:20:37;;;;;;;0.10;0.10;;;;;;;16.50;100.00;101608.31;5054915;28;20096;-50
2023/08/18 01:23:04;;;;;;;0.10;0.10;;;;;;;16.47;100.00;101606.56;5055144;28;20033;-51
2023/08/18 01:25:30;;;;;;;0.00;0.00;;;;;;;16.50;100.00;101605.72;5054146;28;20044;-48
2023/08/18 01:27:58;;;;;;;0.00;0.00;;;;;;;16.45;100.00;101606.53;5055089;28;20029;-51
2023/08/18 01:30:29;;;;;;;0.10;0.10;;;;;;;16.44;100.00;101604.78;5054671;28;20032;-50
2023/08/18 01:33:09;;;;;;;0.10;0.10;;;;;;;16.46;100.00;101587.47;5054832;28;20020;-48
2023/08/18 01:35:35;;;;;;;0.10;0.10;;;;;;;16.42;100.00;101588.28;5054310;28;20021;-50
2023/08/18 01:38:03;;;;;;;0.10;0.10;;;;;;;16.40;100.00;101597.78;5054548;28;20032;-49
2023/08/18 01:40:30;;;;;;;0.00;0.00;;;;;;;16.42;100.00;101590.88;5054773;28;20031;-47
2023/08/18 01:42:58;;;;;;;0.00;0.00;;;;;;;16.39;100.00;101580.41;5054992;28;20028;-51
2023/08/18 01:45:23;;;;;;;0.10;0.10;;;;;;;16.38;100.00;101577.78;5053992;28;20016;-50
2023/08/18 01:47:48;;;;;;;0.00;0.00;;;;;;;16.36;100.00;101576.88;5054535;28;20036;-50
2023/08/18 01:50:14;;;;;;;0.00;0.00;;;;;;;16.36;100.00;101577.75;5054176;28;20040;-50
2023/08/18 01:52:39;;;;;;;0.00;0.00;;;;;;;16.37;100.00;101576.91;5054280;28;20057;-49
2023/08/18 01:55:05;;;;;;;0.00;0.00;;;;;;;16.35;100.00;101576.00;5054355;28;20029;-50
2023/08/18 01:57:30;;;;;;;0.00;0.00;;;;;;;16.34;100.00;101563.84;5054452;28;20480;-50
2023/08/18 01:59:56;;;;;;;0.03;0.03;;;;;;;16.32;100.00;101567.25;5053897;28;20433;-48
2023/08/18 02:02:21;;;;;;;0.10;0.10;;;;;;;16.30;100.00;101568.09;5053914;28;20029;-49
2023/08/18 02:04:46;;;;;;;0.10;0.10;;;;;;;16.28;100.00;101568.94;5054395;28;20528;-51
2023/08/18 02:07:12;;;;;;;0.10;0.10;;;;;;;16.25;100.00;101561.94;5053637;28;20033;-50
2023/08/18 02:09:37;;;;;;;0.00;0.00;;;;;;;16.24;100.00;101564.53;5054189;28;20552;-50
2023/08/18 02:12:03;;;;;;;0.00;0.00;;;;;;;16.24;100.00;101572.31;5054258;28;20443;-51
2023/08/18 02:14:28;;;;;;;0.00;0.00;;;;;;;16.24;100.00;101580.13;5053374;28;20044;-51
2023/08/18 02:16:54;;;;;;;0.03;0.03;;;;;;;16.22;100.00;101577.50;5053934;28;20082;-51
2023/08/18 02:19:19;;;;;;;0.10;0.10;;;;;;;16.20;100.00;101568.78;5053651;28;20108;-50
2023/08/18 02:21:44;;;;;;;0.10;0.10;;;;;;;16.21;100.00;101573.16;5053727;28;20047;-50
2023/08/18 02:24:10;;;;;;;0.10;0.10;;;;;;;16.19;100.00;101571.38;5053195;28;20021;-51
2023/08/18 02:26:36;;;;;;;0.00;0.00;;;;;;;16.19;100.00;101560.97;5053626;28;20484;-51
2023/08/18 02:29:01;;;;;;;0.00;0.00;;;;;;;16.16;100.00;101555.72;5053422;28;20095;-50
2023/08/18 02:31:27;;;;;;;0.10;0.10;;;;;;;16.13;100.00;101557.41;5053340;28;20461;-50
2023/08/18 02:33:52;;;;;;;0.00;0.00;;;;;;;16.12;100.00;101554.78;5053908;28;20040;-50
2023/08/18 02:36:17;;;;;;;0.10;0.10;;;;;;;16.15;100.00;101553.97;5052860;28;20106;-48
2023/08/18 02:38:43;;;;;;;0.10;0.10;;;;;;;16.12;100.00;101550.44;5053519;28;20032;-50
2023/08/18 02:41:08;;;;;;;0.10;0.10;;;;;;;16.13;100.00;101553.94;5053902;28;20025;-51
2023/08/18 02:43:33;;;;;;;0.10;0.10;;;;;;;16.16;100.00;101558.31;5052827;28;20097;-50
2023/08/18 02:46:02;;;;;;;0.10;0.10;;;;;;;16.17;100.00;101557.47;5053537;28;20025;-50
2023/08/18 02:48:29;;;;;;;0.10;0.10;;;;;;;16.13;100.00;101552.22;5052633;28;20025;-51
2023/08/18 02:51:05;;;;;;;0.10;0.10;;;;;;;16.15;100.00;101561.75;5053426;28;20036;-51
2023/08/18 02:53:31;;;;;;;0.10;0.10;;;;;;;16.13;100.00;101552.22;5053140;28;20056;-48
2023/08/18 02:55:58;;;;;;;0.10;0.10;;;;;;;16.16;100.00;101558.31;5053025;28;20091;-51
2023/08/18 02:58:24;;;;;;;0.10;0.10;;;;;;;16.11;100.00;101553.91;5052906;28;20071;-50
2023/08/18 03:00:49;;;;;;;0.00;0.00;;;;;;;16.11;100.00;101553.91;5053207;28;20487;-50
2023/08/18 03:03:15;;;;;;;0.10;0.10;;;;;;;16.10;100.00;101552.16;5052405;28;20056;-50
2023/08/18 03:05:40;;;;;;;0.00;0.00;;;;;;;16.07;100.00;101541.69;5053277;28;20057;-46
2023/08/18 03:08:05;;;;;;;0.10;0.10;;;;;;;16.04;100.00;101541.66;5053308;28;20372;-49
2023/08/18 03:10:31;;;;;;;0.10;0.10;;;;;;;16.03;100.00;101550.28;5052350;28;20040;-48
2023/08/18 03:12:57;;;;;;;0.00;0.00;;;;;;;16.01;100.00;101552.00;5053038;28;20025;-51
2023/08/18 03:15:22;;;;;;;0.10;0.10;;;;;;;16.01;100.00;101544.19;5052855;28;20384;-50
2023/08/18 03:17:49;;;;;;;0.08;0.08;;;;;;;15.98;100.00;101535.47;5052480;28;20056;-49
2023/08/18 03:20:14;;;;;;;0.10;0.10;;;;;;;15.98;100.00;101541.53;5052505;28;20360;-50
2023/08/18 03:22:39;;;;;;;0.00;0.00;;;;;;;15.96;100.00;101548.44;5052937;28;20464;-50
2023/08/18 03:25:05;;;;;;;0.05;0.05;;;;;;;15.92;100.00;101549.19;5052352;28;20055;-49
2023/08/18 03:27:30;;;;;;;0.10;0.10;;;;;;;15.92;100.00;101551.81;5052452;28;20024;-49
2023/08/18 03:29:56;;;;;;;0.00;0.00;;;;;;;15.90;100.00;101541.38;5052761;28;20518;-50
2023/08/18 03:32:24;;;;;;;0.10;0.10;;;;;;;15.90;100.00;101548.31;5051943;28;20029;-51
2023/08/18 03:34:52;;;;;;;0.03;0.03;;;;;;;15.87;100.00;101543.03;5052828;28;20033;-50
2023/08/18 03:37:17;;;;;;;0.10;0.10;;;;;;;15.88;100.00;101543.09;5052593;28;20350;-48
2023/08/18 03:39:42;;;;;;;0.10;0.10;;;;;;;15.87;100.00;101543.03;5052323;28;20522;-50
2023/08/18 03:42:07;;;;;;;0.10;0.10;;;;;;;15.87;100.00;101535.25;5052540;28;20033;-48
2023/08/18 03:44:33;;;;;;;0.00;0.00;;;;;;;15.84;100.00;101540.41;5052288;28;20025;-50
2023/08/18 03:46:58;;;;;;;0.10;0.10;;;;;;;15.86;100.00;101536.13;5052108;28;20107;-51
2023/08/18 03:49:23;;;;;;;0.08;0.08;;;;;;;15.84;100.00;101543.00;5052475;28;20039;-50
2023/08/18 03:51:49;;;;;;;0.08;0.08;;;;;;;15.84;100.00;101543.00;5052308;28;20431;-51
2023/08/18 03:54:14;;;;;;;0.00;0.00;;;;;;;15.81;100.00;101543.81;5052124;28;20484;-50
2023/08/18 03:56:39;;;;;;;0.10;0.10;;;;;;;15.78;100.00;101544.59;5052616;28;20032;-49
2023/08/18 03:59:05;;;;;;;0.10;0.10;;;;;;;15.78;100.00;101542.00;5051988;28;20087;-50
2023/08/18 04:01:31;;;;;;;0.00;0.00;;;;;;;15.78;100.00;101546.34;5051990;28;20025;-50
2023/08/18 04:03:59;;;;;;;0.00;0.00;;;;;;;15.75;100.00;101539.34;5052755;28;20025;-51
2023/08/18 04:06:24;;;;;;;0.10;0.10;;;;;;;15.76;100.00;101548.00;5051780;28;20499;-50
2023/08/18 04:09:06;;;;;;;0.00;0.00;;;;;;;15.76;100.00;101538.50;5052364;28;20029;-51
2023/08/18 04:11:33;;;;;;;0.10;0.10;;;;;;;15.75;100.00;101547.16;5052329;28;20025;-51
2023/08/18 04:13:59;;;;;;;;;;;;;;;15.91;100.00;101544.88;5052272;28;20450;-50
2023/08/18 04:16:24;;;;;;;0.00;0.00;;;;;;;15.79;100.00;101535.97;5051968;28;20348;-51
2023/08/18 04:18:49;;;;;;;0.00;0.00;;;;;;;15.77;100.00;101542.84;5052486;28;20279;-50
2023/08/18 04:21:14;;;;;;;0.00;0.00;;;;;;;15.76;100.00;101548.91;5051599;28;20144;-49
2023/08/18 04:23:40;;;;;;;0.10;0.10;;;;;;;15.73;100.00;101540.16;5052055;28;20025;-50
2023/08/18 04:26:05;;;;;;;0.10;0.10;;;;;;;15.70;100.00;101550.50;5052430;28;20476;-50
2023/08/18 04:28:30;;;;;;;0.10;0.10;;;;;;;15.72;100.00;101534.06;5051240;28;20053;-49
2023/08/18 04:30:56;;;;;;;0.10;0.10;;;;;;;15.69;100.00;101531.44;5051960;28;20037;-45
2023/08/18 04:33:21;;;;;;;0.00;0.00;;;;;;;15.67;100.00;101525.31;5052099;28;20476;-49
2023/08/18 04:35:46;;;;;;;0.10;0.10;;;;;;;15.61;100.00;101523.50;5051741;28;20020;-51
2023/08/18 04:38:13;;;;;;;0.10;0.10;;;;;;;15.58;100.00;101515.66;5051607;28;20021;-49
2023/08/18 04:40:39;;;;;;;0.10;0.10;;;;;;;15.60;100.00;101519.13;5052136;28;20571;-51
2023/08/18 04:43:04;;;;;;;0.10;0.10;;;;;;;15.61;100.00;101523.50;5051457;28;20051;-50
2023/08/18 04:45:30;;;;;;;0.10;0.10;;;;;;;15.61;100.00;101530.41;5051757;28;20021;-49
2023/08/18 04:47:55;;;;;;;0.10;0.10;;;;;;;15.61;100.00;101522.63;5054470;28;20025;-51
2023/08/18 04:50:21;;;;;;;0.10;0.10;;;;;;;15.61;100.00;101528.69;5054987;28;20028;-50
2023/08/18 04:52:46;;;;;;;0.10;0.10;;;;;;;15.61;100.00;101533.03;5055715;28;20495;-49
2023/08/18 04:55:11;;;;;;;0.10;0.10;;;;;;;15.64;100.00;101536.53;5054737;28;20156;-47
2023/08/18 04:57:37;;;;;;;0.00;0.00;;;;;;;15.69;100.00;101534.03;5055377;28;20021;-50
2023/08/18 05:00:04;;;;;;;0.10;0.10;;;;;;;15.71;100.00;101532.34;5055755;28;20043;-49
2023/08/18 05:02:30;;;;;;;0.10;0.10;;;;;;;15.75;100.00;101541.94;5054790;28;20060;-47
2023/08/18 05:04:55;;;;;;;0.10;0.10;;;;;;;15.78;100.00;101542.00;5055284;28;20138;-50
2023/08/18 05:07:21;;;;;;;0.10;0.10;;;;;;;15.80;100.00;101539.41;5054995;28;20380;-50
2023/08/18 05:09:47;;;;;;;0.10;0.10;;;;;;;15.79;100.00;101538.56;5054743;28;20025;-51
2023/08/18 05:12:12;;;;;;;0.00;0.00;;;;;;;15.83;100.00;101542.13;5054695;28;20024;-49
2023/08/18 05:14:37;;;;;;;0.10;0.10;;;;;;;15.86;100.00;101536.13;5055462;28;20021;-50
2023/08/18 05:17:03;;;;;;;0.10;0.10;;;;;;;15.91;100.00;101537.09;5054993;28;20021;-51
2023/08/18 05:19:28;;;;;;;0.10;0.10;;;;;;;15.92;100.00;101536.22;5054753;28;20443;-50
2023/08/18 05:21:53;;;;;;;0.00;0.00;;;;;;;15.93;100.00;101532.75;5055262;28;20073;-51
2023/08/18 05:24:19;;;;;;;0.10;0.10;;;;;;;15.95;100.00;101523.28;5054076;28;20017;-50
2023/08/18 05:26:44;;;;;;;0.10;0.10;;;;;;;16.00;100.00;101520.75;5054798;28;20070;-51
2023/08/18 05:29:10;;;;;;;0.10;0.10;;;;;;;16.02;100.00;101514.72;5054822;28;20087;-49
2023/08/18 05:31:37;;;;;;;0.10;0.10;;;;;;;16.03;100.00;101515.63;5054257;28;20045;-50
2023/08/18 05:34:03;;;;;;;0.10;0.10;;;;;;;16.08;100.00;101511.38;5054837;28;20104;-49
2023/08/18 05:36:29;;;;;;;0.10;0.10;;;;;;;16.17;100.00;101514.13;5054475;28;20021;-48
2023/08/18 05:38:55;;;;;;;0.00;0.00;;;;;;;16.16;100.00;101519.31;5054296;28;20024;-50
2023/08/18 05:41:20;;;;;;;0.10;0.10;;;;;;;16.29;100.00;101521.25;5054229;28;20025;-51
2023/08/18 05:43:45;;;;;;;0.10;0.10;;;;;;;16.30;100.00;101520.41;5054646;28;20050;-50
2023/08/18 05:46:11;;;;;;;0.10;0.10;;;;;;;16.34;100.00;101518.75;5054139;28;20147;-51
2023/08/18 05:48:36;;;;;;;0.08;0.08;;;;;;;16.40;100.00;101529.25;5054369;28;20031;-51
2023/08/18 05:51:02;;;;;;;0.10;0.10;;;;;;;16.44;100.00;101521.50;5054578;28;20017;-50
2023/08/18 05:53:30;;;;;;;0.05;0.05;;;;;;;16.49;100.00;101528.50;5053487;28;20045;-49
2023/08/18 05:55:58;;;;;;;0.05;0.05;;;;;;;16.63;100.00;101527.88;5054380;28;20016;-47
2023/08/18 05:58:23;;;;;;;0.00;0.00;;;;;;;16.65;100.00;101530.50;5052637;28;20052;-49
2023/08/18 06:00:49;;;;;;;0.10;0.10;;;;;;;16.63;100.00;101529.63;5054310;28;20028;-51
2023/08/18 06:03:19;;;;;;;0.10;0.10;;;;;;;16.60;100.00;101529.56;5054152;28;20021;-50
2023/08/18 06:05:45;;;;;;;0.10;0.10;;;;;;;16.57;100.00;101525.19;5053786;28;20029;-47
2023/08/18 06:08:10;;;;;;;0.00;0.00;;;;;;;16.56;100.00;101519.97;5054175;28;20100;-49
2023/08/18 06:10:35;;;;;;;0.10;0.10;;;;;;;16.54;100.00;101522.56;5053714;28;20117;-50
2023/08/18 06:13:01;;;;;;;0.00;0.00;;;;;;;16.60;100.00;101521.75;5053813;28;20020;-50
2023/08/18 06:15:26;;;;;;;0.10;0.10;;;;;;;16.59;100.00;101533.00;5053814;28;20025;-53
2023/08/18 06:17:51;;;;;;;0.10;0.10;;;;;;;16.59;100.00;101535.63;5054278;28;20546;-50
2023/08/18 06:20:17;;;;;;;0.00;0.00;;;;;;;16.58;100.00;101541.69;5053181;28;20388;-50
2023/08/18 06:22:43;;;;;;;0.00;0.00;;;;;;;16.53;100.00;101541.63;5053726;28;20438;-48
2023/08/18 06:25:09;;;;;;;0.00;0.00;;;;;;;16.57;100.00;101537.34;5053713;28;20090;-49
2023/08/18 06:27:34;;;;;;;0.00;0.00;;;;;;;16.54;100.00;101538.16;5053112;28;20029;-46
2023/08/18 06:30:00;;;;;;;0.03;0.03;;;;;;;16.65;100.00;101525.31;5053660;28;20051;-47
2023/08/18 06:32:25;;;;;;;0.10;0.10;;;;;;;16.65;100.00;101534.84;5053630;28;20021;-47
2023/08/18 06:34:51;;;;;;;0.00;0.00;;;;;;;16.84;100.00;101530.81;5053190;28;20078;-50
2023/08/18 06:37:18;;;;;;;0.00;0.00;;;;;;;16.93;100.00;101524.03;5053173;28;20388;-50
2023/08/18 06:39:43;;;;;;;0.10;0.10;;;;;;;16.98;100.00;101516.28;5053580;28;20036;-45
2023/08/18 06:42:08;;;;;;;0.00;0.00;;;;;;;16.98;100.00;101516.28;5052994;28;20033;-45
2023/08/18 06:44:34;;;;;;;0.00;0.00;;;;;;;17.04;100.00;101518.97;5053197;28;20029;-46
2023/08/18 06:47:00;;;;;;;0.00;0.00;;;;;;;17.07;100.00;101518.16;5053510;28;20021;-50
2023/08/18 06:49:26;;;;;;;0.10;0.10;;;;;;;17.10;100.00;101523.38;5052228;28;20529;-46
2023/08/18 06:51:51;;;;;;;0.10;0.10;;;;;;;17.08;100.00;101519.88;5053595;28;20025;-47
2023/08/18 06:54:16;;;;;;;0.00;0.00;;;;;;;17.07;100.00;101526.81;5052956;28;20071;-47
2023/08/18 06:56:42;;;;;;;0.10;0.10;;;;;;;17.15;100.00;101518.25;5052796;28;20052;-49
2023/08/18 06:59:07;;;;;;;0.00;0.00;;;;;;;17.17;100.00;101513.91;5053653;28;20033;-50
2023/08/18 07:01:32;;;;;;;0.00;0.00;;;;;;;17.16;100.00;101519.97;5052629;28;20061;-50
2023/08/18 07:03:58;;;;;;;0.00;0.00;;;;;;;17.18;100.00;101520.88;5053190;28;20104;-50
2023/08/18 07:06:23;;;;;;;0.00;0.00;;;;;;;17.20;100.00;101520.03;5052980;28;20383;-50
2023/08/18 07:08:48;;;;;;;0.10;0.10;;;;;;;17.18;100.00;101516.53;5052632;28;20021;-50
2023/08/18 07:11:14;;;;;;;0.00;0.00;;;;;;;17.26;100.00;101516.63;5052549;28;20051;-53
2023/08/18 07:13:40;;;;;;;0.00;0.00;;;;;;;17.25;100.00;101514.91;5053424;28;20031;-50
2023/08/18 07:16:05;;;;;;;0.03;0.03;;;;;;;17.32;100.00;101506.28;5052554;28;20021;-48
2023/08/18 07:18:30;;;;;;;0.10;0.10;;;;;;;17.30;100.00;101514.94;5052505;28;20317;-49
2023/08/18 07:20:58;;;;;;;0.00;0.00;;;;;;;17.38;100.00;101508.97;5052927;28;20029;-49
2023/08/18 07:23:24;;;;;;;0.00;0.00;;;;;;;17.50;100.00;101513.47;5052043;28;20032;-51
2023/08/18 07:25:50;;;;;;;0.00;0.00;;;;;;;17.46;100.00;101516.03;5052640;28;20065;-50
2023/08/18 07:28:15;;;;;;;0.05;0.05;;;;;;;17.47;100.00;101513.44;5052544;28;20056;-46
2023/08/18 07:30:41;;;;;;;0.00;0.00;;;;;;;17.51;100.00;101514.34;5052301;28;20025;-44
2023/08/18 07:33:06;;;;;;;0.00;0.00;;;;;;;17.59;100.00;101507.47;5052753;28;20440;-51
2023/08/18 07:35:31;;;;;;;0.00;0.00;;;;;;;17.56;100.00;101507.47;5052566;28;20446;-47
2023/08/18 07:37:57;;;;;;;0.10;0.10;;;;;;;17.68;100.00;101512.78;5052155;28;20535;-49
2023/08/18 07:40:22;;;;;;;0.00;0.00;;;;;;;17.73;100.00;101511.09;5052418;28;20025;-48
2023/08/18 07:42:47;;;;;;;0.10;0.10;;;;;;;17.73;100.00;101515.47;5052914;28;20021;-47
2023/08/18 07:45:13;;;;;;;0.10;0.10;;;;;;;17.81;100.00;101515.53;5051896;28;20424;-46
2023/08/18 07:47:39;;;;;;;0.00;0.00;;;;;;;17.78;100.00;101514.63;5052562;28;20384;-49
2023/08/18 07:50:07;;;;;;;0.00;0.00;;;;;;;17.71;100.00;101518.03;5052708;28;20078;-49
2023/08/18 07:52:33;;;;;;;0.00;0.00;;;;;;;17.70;100.00;101513.69;5051620;28;20049;-45
2023/08/18 07:54:58;;;;;;;0.00;0.00;;;;;;;17.90;100.00;101520.84;5052920;28;20429;-45
2023/08/18 07:57:24;;;;;;;0.03;0.03;;;;;;;17.83;100.00;101522.53;5052465;28;20033;-49
2023/08/18 07:59:49;;;;;;;0.00;0.00;;;;;;;17.84;100.00;101529.47;5051920;28;20062;-50
2023/08/18 08:02:14;;;;;;;0.00;0.00;;;;;;;17.89;100.00;101535.59;5052301;28;20029;-45
2023/08/18 08:04:40;;;;;;;0.00;0.00;;;;;;;17.84;100.00;101528.59;5052545;28;20048;-45
2023/08/18 08:07:05;;;;;;;0.00;0.00;;;;;;;17.82;100.00;101532.91;5051578;28;20388;-44
2023/08/18 08:09:30;;;;;;;0.10;0.10;;;;;;;17.78;100.00;101530.28;5052276;28;20152;-46
2023/08/18 08:11:55;;;;;;;0.00;0.00;;;;;;;17.78;100.00;101530.28;5052029;28;20032;-50
2023/08/18 08:14:21;;;;;;;0.00;0.00;;;;;;;17.81;100.00;101529.44;5051992;28;20020;-44
2023/08/18 08:16:47;;;;;;;0.00;0.00;;;;;;;17.82;100.00;101533.81;5052414;28;20029;-50
2023/08/18 08:19:13;;;;;;;0.00;0.00;;;;;;;17.80;100.00;101527.69;5051566;28;20408;-46
2023/08/18 08:21:42;;;;;;;0.00;0.00;;;;;;;17.88;100.00;101530.38;5053091;28;20032;-50
2023/08/18 08:24:08;;;;;;;0.00;0.00;;;;;;;17.99;100.00;101534.00;5056394;28;20028;-48
2023/08/18 08:26:34;;;;;;;0.00;0.00;;;;;;;18.04;100.00;101532.31;5055162;28;20040;-50
2023/08/18 08:28:59;;;;;;;0.10;0.10;;;;;;;18.09;100.00;101528.00;5055991;28;20025;-50
2023/08/18 08:31:24;;;;;;;0.10;0.10;;;;;;;18.32;100.00;101535.19;5055710;28;20075;-49
2023/08/18 08:33:49;;;;;;;0.10;0.10;;;;;;;18.26;100.00;101532.50;5055430;28;20044;-45
2023/08/18 08:36:15;;;;;;;0.00;0.00;;;;;;;18.22;100.00;101533.34;5055365;28;20009;-46
2023/08/18 08:38:42;;;;;;;0.00;0.00;;;;;;;18.32;100.00;101537.78;5055984;28;20096;-44
2023/08/18 08:41:08;;;;;;;0.00;0.00;;;;;;;18.24;100.00;101539.44;5055645;28;20021;-50
2023/08/18 08:43:33;;;;;;;0.10;0.10;;;;;;;18.34;100.00;101546.50;5055628;28;20024;-48
2023/08/18 08:45:59;;;;;;;0.00;0.00;;;;;;;18.15;100.00;101555.03;5056026;28;20025;-50
2023/08/18 08:48:31;;;;;;;0.07;0.07;;;;;;;18.22;100.00;101554.22;5054925;28;20035;-49
2023/08/18 08:51:02;;;;;;;0.00;0.00;;;;;;;18.35;100.00;101550.00;5055673;28;20033;-44
2023/08/18 08:53:35;;;;;;;0.00;0.00;;;;;;;18.31;100.00;101551.69;5055601;28;20021;-48
2023/08/18 08:56:02;;;;;;;0.10;0.10;;;;;;;18.21;100.00;101545.50;5054748;28;20120;-50
2023/08/18 08:58:31;;;;;;;0.00;0.00;;;;;;;18.38;100.00;101550.88;5055388;28;20029;-50
2023/08/18 09:00:59;;;;;;;0.00;0.00;;;;;;;18.45;100.00;101553.53;5055784;28;20087;-49
2023/08/18 09:03:24;;;;;;;0.08;0.08;;;;;;;18.48;100.00;101551.84;5054374;28;20027;-45
2023/08/18 09:05:50;;;;;;;0.10;0.10;;;;;;;18.62;100.00;101556.28;5055338;28;20025;-50
2023/08/18 09:08:15;;;;;;;0.00;0.00;;;;;;;18.60;100.00;101561.50;5054634;28;20021;-49
2023/08/18 09:10:41;;;;;;;0.10;0.10;;;;;;;18.73;100.00;101562.47;5055203;28;20029;-49
2023/08/18 09:13:07;;;;;;;0.00;0.00;;;;;;;18.85;100.00;101559.06;5055423;28;20025;-49
2023/08/18 09:15:33;;;;;;;0.00;0.00;;;;;;;18.97;100.00;101561.78;5054478;28;20369;-47
2023/08/18 09:17:58;;;;;;;0.00;0.00;;;;;;;18.97;100.00;101559.19;5055016;28;20048;-48
2023/08/18 09:20:23;;;;;;;0.00;0.00;;;;;;;19.16;100.00;101554.03;5055080;28;20029;-45
2023/08/18 09:22:54;;;;;;;0.00;0.00;;;;;;;19.08;100.00;101569.69;5054696;28;20452;-45
2023/08/18 09:25:20;;;;;;;0.00;0.00;;;;;;;19.28;100.00;101551.50;5054425;28;20040;-46
2023/08/18 09:27:45;;;;;;;0.00;0.00;;;;;;;19.34;100.00;101550.66;5055178;28;20075;-50
2023/08/18 09:30:11;;;;;;;0.00;0.00;;;;;;;19.46;100.00;101547.22;5054494;28;20029;-49
2023/08/18 09:32:36;;;;;;;0.00;0.00;;;;;;;19.50;100.00;101543.75;5054344;28;20384;-48
2023/08/18 09:35:02;;;;;;;0.00;0.00;;;;;;;19.60;100.00;101545.53;5055102;28;20483;-48
2023/08/18 09:37:31;;;;;;;0.00;0.00;;;;;;;19.65;100.00;101537.69;5054190;28;20029;-46
2023/08/18 09:39:57;;;;;;;0.00;0.00;;;;;;;19.69;100.00;101532.50;5054686;28;20029;-43
2023/08/18 09:42:22;;;;;;;0.00;0.00;;;;;;;19.71;100.00;101532.50;5054541;28;20100;-48
2023/08/18 09:44:47;;;;;;;0.00;0.00;;;;;;;19.77;100.00;101531.63;5053876;28;20048;-44
2023/08/18 09:47:14;;;;;;;0.00;0.00;;;;;;;19.90;100.00;101533.44;5054546;28;20108;-49
2023/08/18 09:49:42;;;;;;;0.00;0.00;;;;;;;19.92;100.00;101533.44;5054729;28;20040;-51
2023/08/18 09:52:12;;;;;;;0.00;0.00;;;;;;;19.69;100.00;101527.25;5053953;28;20028;-48
2023/08/18 09:54:45;;;;;;;0.00;0.00;;;;;;;19.87;100.00;101534.31;5054733;28;20053;-47
2023/08/18 09:57:18;;;;;;;0.00;0.00;;;;;;;20.14;100.00;101536.94;5054468;28;20376;-49
2023/08/18 09:59:53;;;;;;;0.00;0.00;;;;;;;20.34;100.00;101536.97;5053803;28;20124;-50
2023/08/18 10:02:22;;;;;;;0.00;0.00;;;;;;;20.62;100.00;101527.34;5054281;28;20029;-50
2023/08/18 10:04:49;;;;;;;0.00;0.00;;;;;;;20.75;100.00;101524.72;5053991;28;20028;-45
2023/08/18 10:07:16;;;;;;;0.03;0.03;;;;;;;20.80;100.00;101518.63;5053975;28;20064;-46
2023/08/18 10:09:43;;;;;;;0.00;0.00;;;;;;;20.98;100.00;101533.44;5054165;28;20036;-44
2023/08/18 10:12:09;;;;;;;0.00;0.00;;;;;;;20.64;100.00;101532.59;5053628;28;20063;-46
2023/08/18 10:14:36;;;;;;;0.00;0.00;;;;;;;20.57;100.00;101518.63;5053543;28;20033;-46
2023/08/18 10:17:04;;;;;;;0.00;0.00;;;;;;;20.78;100.00;101524.75;5054279;28;20029;-49
2023/08/18 10:19:49;;;;;;;0.00;0.00;;;;;;;20.69;100.00;101521.22;5053123;28;20032;-48
2023/08/18 10:22:16;;;;;;;0.00;0.00;;;;;;;20.76;100.00;101518.63;5053753;28;20052;-49
2023/08/18 10:24:49;;;;;;;0.00;0.00;;;;;;;20.71;100.00;101524.75;5053758;28;20412;-49
2023/08/18 10:27:26;;;;;;;0.00;0.00;;;;;;;20.81;100.00;101511.63;5053091;28;20056;-50
2023/08/18 10:29:54;;;;;;;0.00;0.00;;;;;;;20.53;100.00;101511.66;5053988;28;20044;-44
2023/08/18 10:32:22;;;;;;;0.00;0.00;;;;;;;20.45;100.00;101503.81;5053416;28;20415;-50
2023/08/18 10:34:49;;;;;;;0.00;0.00;;;;;;;20.47;100.00;101498.56;5052994;28;20060;-45
2023/08/18 10:37:14;;;;;;;0.00;0.00;;;;;;;20.91;100.00;101495.00;5053384;28;20044;-44
2023/08/18 10:39:40;;;;;;;0.00;0.00;;;;;;;20.61;100.00;101494.19;5053240;28;20280;-45
2023/08/18 10:42:13;;;;;;;0.00;0.00;;;;;;;20.45;100.00;101501.19;5053319;28;20104;-45
2023/08/18 10:44:55;;;;;;;0.00;0.00;;;;;;;20.64;100.00;101491.53;5052944;28;20456;-49
2023/08/18 10:47:31;;;;;;;0.00;0.00;;;;;;;20.68;100.00;101498.53;5052797;28;20092;-48
2023/08/18 10:50:04;;;;;;;0.00;0.00;;;;;;;21.12;100.00;101493.19;5053129;28;20391;-50
2023/08/18 10:52:30;;;;;;;0.00;0.00;;;;;;;21.22;100.00;101490.50;5053360;28;20048;-46
2023/08/18 10:54:59;;;;;;;0.00;0.00;;;;;;;21.20;100.00;101491.41;5052871;28;20024;-45
2023/08/18 10:57:25;;;;;;;0.00;0.00;;;;;;;21.49;100.00;101493.88;5053102;28;20108;-47
2023/08/18 10:59:51;;;;;;;0.00;0.00;;;;;;;21.52;100.00;101487.75;5053390;28;20075;-47
2023/08/18 11:02:17;;;;;;;0.00;0.00;;;;;;;21.96;100.00;101493.63;5052120;28;20025;-46
2023/08/18 11:04:42;;;;;;;0.00;0.00;;;;;;;22.49;98.80;101480.94;5053179;28;20372;-45
2023/08/18 11:07:08;;;;;;;0.00;0.00;;;;;;;22.62;97.15;101479.06;5053338;28;20468;-50
2023/08/18 11:09:34;;;;;;;0.00;0.00;;;;;;;23.23;94.31;101482.75;5052169;28;20036;-45
2023/08/18 11:12:00;;;;;;;0.00;0.00;;;;;;;23.19;93.03;101483.69;5053278;28;20029;-49
2023/08/18 11:14:25;;;;;;;0.00;0.00;;;;;;;23.30;91.82;101473.88;5052773;28;20028;-49